MMHO/HMO METAR and TAF weather

Enter ICAO airport designator
Station Type Date Time Source
MMHO METAR 2019/02/17 15:40 UTC NOAA

MMHO 171540Z 27005KT 10SM SCT200 12/M01 A3007 RMK 8/008 HZY


Station Type Date Time Source
MMHO Decoded METAR 2019/02/17 15:40 UTC NOAA

Hermosillo, Son., Mexico (MMHO) 29-04N 110-57W
Feb 17, 2019 - 10:40 AM EST / 2019.02.17 1540 UTC
Wind: from the W (270 degrees) at 6 MPH (5 KT):0
Visibility: 10 mile(s):0
Sky conditions: partly cloudy
Temperature: 53 F (12 C)
Dew Point: 30 F (-1 C)
Relative Humidity: 40%
Pressure (altimeter): 30.07 in. Hg (1018 hPa)
ob: MMHO 171540Z 27005KT 10SM SCT200 12/M01 A3007 RMK 8/008 HZY
cycle: 15

Station Type Date Time Source
MMHO TAF 2019/02/17 06:58 UTC NOAA

TAF MMHO 170451Z 1706/1806 27005KT P6SM SKC
FM171800 34010KT P6SM SCT220
BECMG 1803/1805 28004KT SKC


Example: see airport list